createdAt,value
2018-07-28T00:02:36.936Z,88.80
2018-07-28T00:05:17.301Z,88.60
2018-07-28T00:07:58.301Z,88.60
2018-07-28T00:10:39.427Z,89.20
2018-07-28T00:13:20.558Z,89.50
2018-07-28T00:16:01.325Z,90.10
2018-07-28T00:18:41.795Z,90.10
2018-07-28T00:24:02.814Z,90.40
2018-07-28T00:26:43.563Z,90.60
2018-07-28T00:29:24.660Z,90.80
2018-07-28T00:32:05.370Z,90.70
2018-07-28T00:34:45.873Z,90.50
2018-07-28T00:37:26.535Z,90.10
2018-07-28T00:40:07.893Z,89.80
2018-07-28T00:42:48.768Z,90.00
2018-07-28T00:45:29.625Z,90.10
2018-07-28T00:48:10.380Z,90.30
2018-07-28T00:50:51.159Z,90.60
2018-07-28T00:53:31.636Z,90.50
2018-07-28T00:56:19.173Z,90.50
2018-07-28T00:58:59.568Z,90.70
2018-07-28T01:01:40.865Z,90.80
2018-07-28T01:04:21.676Z,91.00
2018-07-28T01:07:02.573Z,91.00
2018-07-28T01:09:43.784Z,90.90
2018-07-28T01:12:24.519Z,90.80
2018-07-28T01:15:08.657Z,90.70
2018-07-28T01:17:49.377Z,90.70
2018-07-28T01:20:30.629Z,90.80
2018-07-28T01:23:11.689Z,90.80
2018-07-28T01:25:52.496Z,90.80
2018-07-28T01:28:33.304Z,91.10
2018-07-28T01:31:14.449Z,90.80
2018-07-28T01:33:55.963Z,90.80
2018-07-28T01:36:39.876Z,91.00
2018-07-28T01:39:20.665Z,90.60
2018-07-28T01:42:01.556Z,91.00
2018-07-28T01:44:42.244Z,90.80
2018-07-28T01:47:22.956Z,90.90
2018-07-28T01:50:03.772Z,90.90
2018-07-28T01:52:44.809Z,91.30
2018-07-28T01:55:25.135Z,91.10
2018-07-28T01:58:05.942Z,91.10
2018-07-28T02:00:46.433Z,91.20
2018-07-28T02:03:27.301Z,91.30
2018-07-28T02:06:08.124Z,91.40
2018-07-28T02:08:49.388Z,91.50
2018-07-28T02:11:29.824Z,91.70
2018-07-28T02:14:11.182Z,91.50
2018-07-28T02:16:52.273Z,91.70
2018-07-28T02:19:32.993Z,92.10
2018-07-28T02:22:13.908Z,91.60
2018-07-28T02:24:54.281Z,91.30
2018-07-28T02:27:35.279Z,91.30
2018-07-28T02:30:15.965Z,91.30
2018-07-28T02:32:56.802Z,91.00
2018-07-28T02:38:18.111Z,91.00
2018-07-28T02:40:59.160Z,91.20
2018-07-28T02:43:39.695Z,91.30
2018-07-28T02:46:20.477Z,91.40
2018-07-28T02:49:01.029Z,91.50
2018-07-28T02:51:42.245Z,91.50
2018-07-28T02:54:23.415Z,91.50
2018-07-28T02:57:03.811Z,91.50
2018-07-28T02:59:45.019Z,91.40
2018-07-28T03:02:25.738Z,91.40
2018-07-28T03:05:08.020Z,91.30
2018-07-28T03:07:50.054Z,91.30
2018-07-28T03:10:30.957Z,91.30
2018-07-28T03:13:12.208Z,91.60
2018-07-28T03:15:52.976Z,91.80
2018-07-28T03:18:33.541Z,91.60
2018-07-28T03:21:14.308Z,91.60
2018-07-28T03:23:55.319Z,91.70
2018-07-28T03:26:35.994Z,91.80
2018-07-28T03:29:17.235Z,91.70
2018-07-28T03:31:58.110Z,91.70
2018-07-28T03:34:39.165Z,91.90
2018-07-28T03:37:19.948Z,91.70
2018-07-28T03:40:01.191Z,91.70
2018-07-28T03:42:41.789Z,91.50
2018-07-28T03:45:22.258Z,91.70
2018-07-28T03:48:03.257Z,91.90
2018-07-28T03:50:45.085Z,92.00
2018-07-28T03:53:25.617Z,92.10
2018-07-28T03:56:07.051Z,91.90
2018-07-28T03:58:47.799Z,92.00
2018-07-28T04:01:28.604Z,91.90
2018-07-28T04:04:11.348Z,91.80
2018-07-28T04:06:52.411Z,91.80
2018-07-28T04:09:33.327Z,91.80
2018-07-28T04:12:14.209Z,91.70
2018-07-28T04:14:54.584Z,91.70
2018-07-28T04:17:39.674Z,91.50
2018-07-28T04:20:20.909Z,91.40
2018-07-28T04:23:01.399Z,91.80
2018-07-28T04:25:42.239Z,91.50
2018-07-28T04:28:23.053Z,91.30
2018-07-28T04:31:03.975Z,91.50
2018-07-28T04:33:44.754Z,91.50
2018-07-28T04:36:25.557Z,91.60
2018-07-28T04:39:10.796Z,91.50
2018-07-28T04:41:52.200Z,91.40
2018-07-28T04:44:33.037Z,91.40
2018-07-28T04:47:13.616Z,91.30
2018-07-28T04:49:54.503Z,91.30
2018-07-28T04:52:35.325Z,91.30
2018-07-28T04:55:16.369Z,91.20
2018-07-28T04:57:56.836Z,91.00
2018-07-28T05:00:37.229Z,90.60
2018-07-28T05:05:58.192Z,89.50
2018-07-28T05:08:39.180Z,88.40
2018-07-28T05:11:20.472Z,87.50
2018-07-28T05:14:01.252Z,86.70
2018-07-28T05:16:41.868Z,86.50
2018-07-28T05:19:23.279Z,84.70
2018-07-28T05:22:04.470Z,84.70
2018-07-28T05:24:45.219Z,85.70
2018-07-28T05:27:26.354Z,85.20
2018-07-28T05:30:09.564Z,84.50
2018-07-28T05:32:50.163Z,83.20
2018-07-28T05:35:31.028Z,82.50
2018-07-28T05:38:11.814Z,82.90
2018-07-28T05:43:32.861Z,83.40
2018-07-28T05:46:13.605Z,83.30
2018-07-28T05:48:54.004Z,83.50
2018-07-28T05:51:34.622Z,83.30
2018-07-28T05:54:15.694Z,83.40
2018-07-28T05:56:56.923Z,83.50
2018-07-28T05:59:37.748Z,83.20
2018-07-28T06:02:18.592Z,83.30
2018-07-28T06:04:59.289Z,83.50
2018-07-28T06:07:40.056Z,82.80
2018-07-28T06:10:20.646Z,83.60
2018-07-28T06:13:01.776Z,83.20
2018-07-28T06:15:42.975Z,82.70
2018-07-28T06:18:24.342Z,82.90
2018-07-28T06:21:05.145Z,82.00
2018-07-28T06:23:45.956Z,80.80
2018-07-28T06:26:26.387Z,80.40
2018-07-28T06:29:06.925Z,81.00
2018-07-28T06:31:47.755Z,80.20
2018-07-28T06:34:28.624Z,80.00
2018-07-28T06:37:09.848Z,80.00
2018-07-28T06:39:50.748Z,79.40
2018-07-28T06:42:31.719Z,78.80
2018-07-28T06:45:12.586Z,78.40
2018-07-28T06:47:53.837Z,77.70
2018-07-28T06:50:35.250Z,76.40
2018-07-28T06:53:15.746Z,75.70
2018-07-28T06:55:56.933Z,73.80
2018-07-28T06:58:37.472Z,72.70
2018-07-28T07:01:18.300Z,72.80
2018-07-28T07:03:59.310Z,73.10
2018-07-28T07:06:40.141Z,73.50
2018-07-28T07:09:20.940Z,73.70
2018-07-28T07:12:01.518Z,73.40
2018-07-28T07:14:42.458Z,72.90
2018-07-28T07:17:22.894Z,72.80
2018-07-28T07:20:03.738Z,72.50
2018-07-28T07:22:44.903Z,72.00
2018-07-28T07:25:25.790Z,71.90
2018-07-28T07:28:06.459Z,72.10
2018-07-28T07:30:47.219Z,70.80
2018-07-28T07:33:34.751Z,70.00
2018-07-28T07:36:16.211Z,69.40
2018-07-28T07:38:56.984Z,70.30
2018-07-28T07:41:38.306Z,69.20
2018-07-28T07:44:19.435Z,68.60
2018-07-28T07:47:00.173Z,67.70
2018-07-28T07:49:41.551Z,66.90
2018-07-28T07:52:22.968Z,66.00
2018-07-28T07:55:03.845Z,65.80
2018-07-28T07:57:45.390Z,64.10
2018-07-28T08:00:26.227Z,60.40
2018-07-28T08:03:07.198Z,53.20
2018-07-28T08:05:48.731Z,47.50
2018-07-28T08:08:29.518Z,44.50
2018-07-28T08:11:10.397Z,42.10
2018-07-28T08:13:51.915Z,40.00
2018-07-28T08:16:32.414Z,39.00
2018-07-28T08:19:13.391Z,38.50
2018-07-28T08:21:53.746Z,38.40
2018-07-28T08:24:35.023Z,37.10
2018-07-28T08:27:15.788Z,36.40
2018-07-28T08:29:56.620Z,34.90
2018-07-28T08:32:37.341Z,32.90
2018-07-28T08:35:17.990Z,33.50
2018-07-28T08:37:58.714Z,32.30
2018-07-28T08:40:39.817Z,32.50
2018-07-28T08:43:20.712Z,32.50
2018-07-28T08:46:01.747Z,31.80
2018-07-28T08:48:42.109Z,30.50
2018-07-28T08:51:22.989Z,31.40
2018-07-28T08:54:03.787Z,30.40
2018-07-28T08:56:44.579Z,30.30
2018-07-28T09:02:07.073Z,28.70
2018-07-28T09:04:47.918Z,29.60
2018-07-28T09:07:28.733Z,29.20
2018-07-28T09:10:09.568Z,29.90
2018-07-28T09:12:50.129Z,29.10
2018-07-28T09:15:31.301Z,29.20
2018-07-28T09:18:12.551Z,29.10
2018-07-28T09:20:53.300Z,28.30
2018-07-28T09:23:33.907Z,28.40
2018-07-28T09:26:15.099Z,27.90
2018-07-28T09:28:55.963Z,27.00
2018-07-28T09:31:36.770Z,26.40
2018-07-28T09:34:17.991Z,27.00
2018-07-28T09:36:59.447Z,26.40
2018-07-28T09:39:40.809Z,26.60
2018-07-28T09:42:21.780Z,26.30
2018-07-28T09:45:02.819Z,26.70
2018-07-28T09:47:44.094Z,26.20
2018-07-28T09:50:24.835Z,26.40
2018-07-28T09:53:05.937Z,26.80
2018-07-28T09:55:47.703Z,26.90
2018-07-28T09:58:28.641Z,26.40
2018-07-28T10:01:14.293Z,25.80
2018-07-28T10:03:55.064Z,26.70
2018-07-28T10:06:35.748Z,25.70
2018-07-28T10:09:16.489Z,25.80
2018-07-28T10:11:57.544Z,26.00
2018-07-28T10:14:38.241Z,26.00
2018-07-28T10:17:19.015Z,26.20
2018-07-28T10:20:00.460Z,25.70
2018-07-28T10:22:40.978Z,27.80
2018-07-28T10:25:22.583Z,29.00
2018-07-28T10:28:03.021Z,28.20
2018-07-28T10:30:44.267Z,28.70
2018-07-28T10:33:25.382Z,29.90
2018-07-28T10:36:06.584Z,31.90
2018-07-28T10:38:47.383Z,34.20
2018-07-28T10:41:28.057Z,36.20
2018-07-28T10:44:09.430Z,37.80
2018-07-28T10:46:50.169Z,38.40
2018-07-28T10:49:31.355Z,39.40
2018-07-28T10:52:12.416Z,40.20
2018-07-28T10:54:53.219Z,40.60
2018-07-28T10:57:33.921Z,41.30
2018-07-28T11:00:14.738Z,41.20
2018-07-28T11:02:55.424Z,42.10
2018-07-28T11:05:36.613Z,42.10
2018-07-28T11:08:17.606Z,42.30
2018-07-28T11:10:58.074Z,42.90
2018-07-28T11:13:39.557Z,44.00
2018-07-28T11:16:19.993Z,44.50
2018-07-28T11:19:00.884Z,44.30
2018-07-28T11:21:41.627Z,44.90
2018-07-28T11:24:22.733Z,45.40
2018-07-28T11:27:03.574Z,45.00
2018-07-28T11:29:44.682Z,45.80
2018-07-28T11:32:42.247Z,45.60
2018-07-28T11:35:40.773Z,46.20
2018-07-28T11:38:38.326Z,46.40
2018-07-28T11:41:36.063Z,46.50
2018-07-28T11:44:33.653Z,45.40
2018-07-28T11:47:14.228Z,44.00
2018-07-28T11:50:01.861Z,41.90
2018-07-28T11:52:43.310Z,41.80
2018-07-28T11:55:24.160Z,41.30
2018-07-28T11:58:05.693Z,41.70
2018-07-28T12:00:46.485Z,42.30
2018-07-28T12:03:27.739Z,43.40
2018-07-28T12:06:08.921Z,44.10
2018-07-28T12:08:50.406Z,44.20
2018-07-28T12:11:31.140Z,45.50
2018-07-28T12:14:12.144Z,46.10
2018-07-28T12:16:53.390Z,47.00
2018-07-28T12:19:40.605Z,45.90
2018-07-28T12:22:21.459Z,47.40
2018-07-28T12:25:02.228Z,47.50
2018-07-28T12:27:43.297Z,49.00
2018-07-28T12:30:24.312Z,50.00
2018-07-28T12:33:05.168Z,51.30
2018-07-28T12:35:46.078Z,54.00
2018-07-28T12:38:26.754Z,54.90
2018-07-28T12:41:07.851Z,55.10
2018-07-28T12:43:48.857Z,55.30
2018-07-28T12:46:29.929Z,55.20
2018-07-28T12:49:11.180Z,55.40
2018-07-28T12:51:52.367Z,56.00
2018-07-28T12:54:33.211Z,55.10
2018-07-28T12:57:13.666Z,56.10
2018-07-28T12:59:54.505Z,56.40
2018-07-28T13:02:35.578Z,56.10
2018-07-28T13:05:16.425Z,54.20
2018-07-28T13:07:57.629Z,54.20
2018-07-28T13:10:38.694Z,53.80
2018-07-28T13:13:19.637Z,54.20
2018-07-28T13:16:00.485Z,54.40
2018-07-28T13:18:41.713Z,55.90
2018-07-28T13:21:22.558Z,56.10
2018-07-28T13:24:02.913Z,56.00
2018-07-28T13:26:43.867Z,56.00
2018-07-28T13:29:24.793Z,56.40
2018-07-28T13:32:06.065Z,57.40
2018-07-28T13:34:46.898Z,58.80
2018-07-28T13:37:27.970Z,59.60
2018-07-28T13:40:09.436Z,59.80
2018-07-28T13:42:50.556Z,61.30
2018-07-28T13:48:11.866Z,66.00
2018-07-28T13:50:52.722Z,64.50
2018-07-28T13:53:33.630Z,64.10
2018-07-28T13:56:14.323Z,59.00
2018-07-28T13:58:55.167Z,57.60
2018-07-28T14:01:35.861Z,57.00
2018-07-28T14:04:17.346Z,53.80
2018-07-28T14:06:58.599Z,52.10
2018-07-28T14:09:39.753Z,46.70
2018-07-28T14:12:21.064Z,43.80
2018-07-28T14:15:02.110Z,42.20
2018-07-28T14:17:43.196Z,40.50
2018-07-28T14:20:24.076Z,36.80
2018-07-28T14:23:04.902Z,36.60
2018-07-28T14:25:45.833Z,36.00
2018-07-28T14:28:26.610Z,36.90
2018-07-28T14:31:08.047Z,34.50
2018-07-28T14:33:48.795Z,34.40
2018-07-28T14:36:29.746Z,33.30
2018-07-28T14:39:10.620Z,34.10
2018-07-28T14:41:52.008Z,32.00
2018-07-28T14:44:33.047Z,30.20
2018-07-28T14:47:14.188Z,32.90
2018-07-28T14:49:55.320Z,32.90
2018-07-28T14:52:36.662Z,34.00
2018-07-28T14:55:18.084Z,34.00
2018-07-28T14:57:59.478Z,34.30
2018-07-28T15:00:40.375Z,35.70
2018-07-28T15:03:21.024Z,35.60
2018-07-28T15:06:02.032Z,35.40
2018-07-28T15:08:43.319Z,35.80
2018-07-28T15:11:24.429Z,37.90
2018-07-28T15:14:05.154Z,39.60
2018-07-28T15:16:45.673Z,41.30
2018-07-28T15:19:26.828Z,39.50
2018-07-28T15:22:07.705Z,40.30
2018-07-28T15:24:48.530Z,39.60
2018-07-28T15:27:29.775Z,41.80
2018-07-28T15:30:10.923Z,40.00
2018-07-28T15:32:51.797Z,40.30
2018-07-28T15:35:32.613Z,41.70
2018-07-28T15:38:13.504Z,42.80
2018-07-28T15:40:59.769Z,41.50
2018-07-28T15:43:40.249Z,42.20
2018-07-28T15:46:20.834Z,43.50
2018-07-28T15:49:02.176Z,43.80
2018-07-28T15:51:42.823Z,44.30
2018-07-28T15:54:23.215Z,45.10
2018-07-28T15:57:04.540Z,45.30
2018-07-28T15:59:46.066Z,46.10
2018-07-28T16:02:26.978Z,46.40
2018-07-28T16:05:08.306Z,46.90
2018-07-28T16:07:48.864Z,47.10
2018-07-28T16:10:30.069Z,47.80
2018-07-28T16:13:10.817Z,48.20
2018-07-28T16:15:51.206Z,48.80
2018-07-28T16:18:32.422Z,49.10
2018-07-28T16:21:13.177Z,49.20
2018-07-28T16:23:55.491Z,49.00
2018-07-28T16:26:36.878Z,50.90
2018-07-28T16:29:17.737Z,52.10
2018-07-28T16:32:00.785Z,52.90
2018-07-28T16:34:41.465Z,52.90
2018-07-28T16:37:22.356Z,52.90
2018-07-28T16:40:03.494Z,51.50
2018-07-28T16:42:44.586Z,50.50
2018-07-28T16:45:25.439Z,52.10
2018-07-28T16:48:05.916Z,49.90
2018-07-28T16:50:46.830Z,49.80
2018-07-28T16:53:27.540Z,49.50
2018-07-28T16:56:08.809Z,50.20
2018-07-28T16:58:49.540Z,51.00
2018-07-28T17:01:30.924Z,49.50
2018-07-28T17:04:12.233Z,46.70
2018-07-28T17:06:52.629Z,46.60
2018-07-28T17:09:33.898Z,46.60
2018-07-28T17:12:14.785Z,46.00
2018-07-28T17:14:55.935Z,46.60
2018-07-28T17:17:36.741Z,47.00
2018-07-28T17:20:17.666Z,46.80
2018-07-28T17:22:58.604Z,46.70
2018-07-28T17:25:39.815Z,46.90
2018-07-28T17:28:21.058Z,47.60
2018-07-28T17:31:02.043Z,47.80
2018-07-28T17:33:43.210Z,48.30
2018-07-28T17:36:23.565Z,48.60
2018-07-28T17:39:06.155Z,49.00
2018-07-28T17:41:47.479Z,49.20
2018-07-28T17:44:28.695Z,49.90
2018-07-28T17:47:09.934Z,50.60
2018-07-28T17:49:50.817Z,51.30
2018-07-28T17:52:31.722Z,51.90
2018-07-28T17:55:12.721Z,51.90
2018-07-28T17:57:53.651Z,51.00
2018-07-28T18:00:38.517Z,50.80
2018-07-28T18:03:19.825Z,50.80
2018-07-28T18:06:00.369Z,51.30
2018-07-28T18:08:40.886Z,51.50
2018-07-28T18:11:21.293Z,51.90
2018-07-28T18:14:02.266Z,52.10
2018-07-28T18:16:43.191Z,51.50
2018-07-28T18:19:25.145Z,51.50
2018-07-28T18:22:05.871Z,51.40
2018-07-28T18:24:46.456Z,52.10
2018-07-28T18:27:27.430Z,52.20
2018-07-28T18:30:08.255Z,52.70
2018-07-28T18:35:30.361Z,54.50
2018-07-28T18:38:10.775Z,55.50
2018-07-28T18:40:51.525Z,56.50
2018-07-28T18:43:32.709Z,57.80
2018-07-28T18:46:14.735Z,58.70
2018-07-28T18:48:56.250Z,59.10
2018-07-28T18:51:37.458Z,60.00
2018-07-28T18:54:18.520Z,60.00
2018-07-28T18:56:59.517Z,60.20
2018-07-28T18:59:40.806Z,60.80
2018-07-28T19:02:21.505Z,62.80
2018-07-28T19:05:02.541Z,63.10
2018-07-28T19:07:43.006Z,63.60
2018-07-28T19:13:10.487Z,66.10
2018-07-28T19:15:51.119Z,66.50
2018-07-28T19:18:36.900Z,66.60
2018-07-28T19:21:17.826Z,66.60
2018-07-28T19:24:01.523Z,65.60
2018-07-28T19:26:41.996Z,65.30
2018-07-28T19:29:27.958Z,65.30
2018-07-28T19:34:49.129Z,65.20
2018-07-28T19:37:30.195Z,65.10
2018-07-28T19:40:11.310Z,65.00
2018-07-28T19:42:52.720Z,65.30
2018-07-28T19:45:33.613Z,65.10
2018-07-28T19:48:14.946Z,65.10
2018-07-28T19:50:56.123Z,65.00
2018-07-28T19:53:37.239Z,64.70
2018-07-28T19:56:18.110Z,65.10
2018-07-28T19:58:58.596Z,65.30
2018-07-28T20:01:39.339Z,65.80
2018-07-28T20:04:20.266Z,65.60
2018-07-28T20:07:00.690Z,65.30
2018-07-28T20:09:41.582Z,64.70
2018-07-28T20:12:22.814Z,65.30
2018-07-28T20:15:03.503Z,65.40
2018-07-28T20:17:44.212Z,65.00
2018-07-28T20:20:25.442Z,64.30
2018-07-28T20:23:06.226Z,64.30
2018-07-28T20:25:46.937Z,64.10
2018-07-28T20:28:27.966Z,64.80
2018-07-28T20:31:09.525Z,65.00
2018-07-28T20:33:50.281Z,64.90
2018-07-28T20:36:31.100Z,65.50
2018-07-28T20:39:12.543Z,65.60
2018-07-28T20:41:53.662Z,66.80
2018-07-28T20:44:34.019Z,66.20
2018-07-28T20:47:15.410Z,66.20
2018-07-28T20:49:56.357Z,66.70
2018-07-28T20:52:37.561Z,67.70
2018-07-28T20:55:18.334Z,68.50
2018-07-28T20:57:59.226Z,69.00
2018-07-28T21:00:40.279Z,69.60
2018-07-28T21:03:20.754Z,70.30
2018-07-28T21:06:02.458Z,71.00
2018-07-28T21:08:43.013Z,71.50
2018-07-28T21:11:23.730Z,72.20
2018-07-28T21:14:04.657Z,72.80
2018-07-28T21:16:45.981Z,73.60
2018-07-28T21:19:27.129Z,73.90
2018-07-28T21:22:08.012Z,74.50
2018-07-28T21:24:48.919Z,75.00
2018-07-28T21:27:29.371Z,75.30
2018-07-28T21:30:10.919Z,75.70
2018-07-28T21:32:51.886Z,75.50
2018-07-28T21:35:32.325Z,75.70
2018-07-28T21:38:13.378Z,75.90
2018-07-28T21:40:55.219Z,76.00
2018-07-28T21:43:36.807Z,76.80
2018-07-28T21:46:18.133Z,77.20
2018-07-28T21:48:59.157Z,77.50
2018-07-28T21:51:40.118Z,78.10
2018-07-28T21:54:21.100Z,77.80
2018-07-28T21:57:02.424Z,78.00
2018-07-28T21:59:43.908Z,78.50
2018-07-28T22:02:24.638Z,79.10
2018-07-28T22:05:05.542Z,79.30
2018-07-28T22:07:46.730Z,79.90
2018-07-28T22:10:28.141Z,79.60
2018-07-28T22:13:08.930Z,80.20
2018-07-28T22:15:50.200Z,81.30
2018-07-28T22:18:31.457Z,81.10
2018-07-28T22:21:12.272Z,81.30
2018-07-28T22:23:52.952Z,81.30
2018-07-28T22:26:33.868Z,81.30
2018-07-28T22:29:14.273Z,81.30
2018-07-28T22:31:55.357Z,81.50
2018-07-28T22:34:36.297Z,81.90
2018-07-28T22:37:16.934Z,82.10
2018-07-28T22:39:57.760Z,81.60
2018-07-28T22:42:49.737Z,84.30
2018-07-28T22:45:30.169Z,86.80
2018-07-28T22:48:10.664Z,87.00
2018-07-28T22:50:51.989Z,88.80
2018-07-28T22:53:33.566Z,89.10
2018-07-28T22:56:14.202Z,91.30
2018-07-28T22:58:55.722Z,90.50
2018-07-28T23:01:36.846Z,91.30
2018-07-28T23:06:58.822Z,90.70
2018-07-28T23:09:39.289Z,91.60
2018-07-28T23:12:20.413Z,91.20
2018-07-28T23:15:01.362Z,90.80
2018-07-28T23:17:42.925Z,90.60
2018-07-28T23:20:23.811Z,90.90
2018-07-28T23:23:04.237Z,91.10
2018-07-28T23:25:45.332Z,91.50
2018-07-28T23:28:26.154Z,91.30
2018-07-28T23:31:06.753Z,91.10
2018-07-28T23:33:47.252Z,91.00
2018-07-28T23:36:27.729Z,90.60
2018-07-28T23:39:09.588Z,90.60
2018-07-28T23:41:51.643Z,90.50
2018-07-28T23:44:32.381Z,90.80
2018-07-28T23:47:12.893Z,90.80
2018-07-28T23:52:33.841Z,90.30
2018-07-28T23:55:14.615Z,90.60
2018-07-28T23:57:55.316Z,90.80
